Terminal Aerodrome Forecast
Issued by NWS

Home | Current Version | Previous Version | Text Only | Print | Product List | Glossary On
Versions: 1 2 3 4 5 6 7 8 9 10 11 12 13 14 15
000
FTUS45 KLKN 191720
TAFEKO
TAF
KEKO 191720Z 1918/2018 19010G18KT P6SM VCSH FEW020 BKN050 OVC100
     FM192000 23015G25KT P6SM SCT040 BKN120
     FM200000 VRB06KT P6SM VCSH SCT040 BKN120
     FM200500 18010KT P6SM -RA SCT025 BKN040=

USA.gov is the U.S. government's official web portal to all federal, state and local government web resources and services.